createdAt,value
2022-09-07T00:01:00.750Z,4.85
2022-09-07T00:03:27.865Z,7.13
2022-09-07T00:05:54.617Z,6.82
2022-09-07T00:08:23.308Z,7.55
2022-09-07T00:10:59.503Z,9.82
2022-09-07T00:13:28.601Z,8.23
2022-09-07T00:15:55.618Z,5.72
2022-09-07T00:18:22.262Z,1.88
2022-09-07T00:21:01.041Z,2.63
2022-09-07T00:23:30.019Z,3.45
2022-09-07T00:26:06.185Z,5.53
2022-09-07T00:28:33.144Z,3.53
2022-09-07T00:30:59.949Z,4.20
2022-09-07T00:33:27.012Z,5.97
2022-09-07T00:35:54.192Z,6.43
2022-09-07T00:38:20.867Z,4.05
2022-09-07T00:40:47.469Z,5.45
2022-09-07T00:43:18.258Z,8.30
2022-09-07T00:45:44.818Z,6.72
2022-09-07T00:48:17.118Z,4.68
2022-09-07T00:50:48.488Z,4.25
2022-09-07T00:53:21.336Z,6.47
2022-09-07T00:55:51.146Z,5.47
2022-09-07T00:58:19.947Z,4.38
2022-09-07T01:00:48.778Z,5.45
2022-09-07T01:03:19.081Z,9.43
2022-09-07T01:08:15.362Z,4.78
2022-09-07T01:10:41.976Z,3.10
2022-09-07T01:13:08.611Z,4.55
2022-09-07T01:16:14.233Z,5.75
2022-09-07T01:19:00.205Z,5.72
2022-09-07T01:21:53.057Z,6.05
2022-09-07T01:24:41.818Z,6.20
2022-09-07T01:27:20.750Z,6.20
2022-09-07T01:30:06.323Z,2.53
2022-09-07T01:32:54.402Z,4.22
2022-09-07T01:35:31.781Z,5.55
2022-09-07T01:38:29.288Z,7.05
2022-09-07T01:41:03.272Z,11.93
2022-09-07T01:43:51.581Z,6.72
2022-09-07T01:46:42.616Z,6.28
2022-09-07T01:49:14.437Z,2.42
2022-09-07T01:51:47.303Z,4.97
2022-09-07T01:54:32.104Z,5.63
2022-09-07T01:57:04.397Z,6.75
2022-09-07T01:59:44.617Z,3.78
2022-09-07T02:02:16.798Z,3.42
2022-09-07T02:04:55.519Z,7.43
2022-09-07T02:07:28.448Z,7.10
2022-09-07T02:10:02.566Z,5.57
2022-09-07T02:12:40.686Z,4.93
2022-09-07T02:15:16.556Z,4.25
2022-09-07T02:17:49.060Z,4.25
2022-09-07T02:20:22.017Z,6.30
2022-09-07T02:22:55.087Z,7.15
2022-09-07T02:25:26.737Z,8.98
2022-09-07T02:28:00.165Z,6.90
2022-09-07T02:30:26.698Z,5.32
2022-09-07T02:32:54.097Z,8.43
2022-09-07T02:35:20.910Z,5.60
2022-09-07T02:37:48.867Z,7.72
2022-09-07T02:40:15.354Z,5.20
2022-09-07T02:42:43.335Z,7.03
2022-09-07T02:45:12.644Z,8.43
2022-09-07T02:48:14.320Z,10.10
2022-09-07T02:50:56.372Z,14.55
2022-09-07T02:53:52.640Z,8.30
2022-09-07T02:56:37.877Z,11.45
2022-09-07T02:59:22.897Z,11.73
2022-09-07T03:02:25.115Z,10.80
2022-09-07T03:05:11.505Z,11.40
2022-09-07T03:07:51.413Z,9.13
2022-09-07T03:10:19.025Z,10.30
2022-09-07T03:12:48.493Z,11.30
2022-09-07T03:15:18.925Z,13.02
2022-09-07T03:17:45.448Z,14.13
2022-09-07T03:20:12.697Z,13.38
2022-09-07T03:22:39.583Z,14.40
2022-09-07T03:25:06.892Z,22.55
2022-09-07T03:27:33.689Z,32.38
2022-09-07T03:30:00.375Z,32.13
2022-09-07T03:32:32.770Z,27.13
2022-09-07T03:35:00.065Z,29.23
2022-09-07T03:37:26.840Z,17.08
2022-09-07T03:39:53.472Z,16.73
2022-09-07T03:42:20.642Z,27.75
2022-09-07T03:44:49.422Z,21.38
2022-09-07T03:47:17.189Z,32.20
2022-09-07T03:49:44.142Z,20.02
2022-09-07T03:52:10.668Z,18.90
2022-09-07T03:54:39.576Z,18.42
2022-09-07T03:57:06.814Z,28.33
2022-09-07T03:59:33.343Z,29.15
2022-09-07T04:02:00.156Z,27.35
2022-09-07T04:04:27.392Z,24.48
2022-09-07T04:06:54.071Z,26.52
2022-09-07T04:09:20.608Z,23.75
2022-09-07T04:11:47.187Z,22.63
2022-09-07T04:14:13.780Z,23.00
2022-09-07T04:16:40.703Z,22.40
2022-09-07T04:19:07.247Z,17.25
2022-09-07T04:21:34.509Z,10.68
2022-09-07T04:24:01.389Z,14.35
2022-09-07T04:26:33.285Z,7.88
2022-09-07T04:29:03.412Z,9.05
2022-09-07T04:31:30.947Z,12.52
2022-09-07T04:33:57.432Z,8.18
2022-09-07T04:36:24.941Z,11.27
2022-09-07T04:38:59.746Z,9.82
2022-09-07T04:41:27.790Z,7.95
2022-09-07T04:43:56.689Z,10.27
2022-09-07T04:46:26.234Z,11.05
2022-09-07T04:48:58.194Z,10.98
2022-09-07T04:51:27.041Z,9.48
2022-09-07T04:53:55.345Z,11.15
2022-09-07T04:56:22.804Z,11.00
2022-09-07T04:58:49.916Z,11.15
2022-09-07T05:01:19.465Z,9.00
2022-09-07T05:03:47.109Z,11.77
2022-09-07T05:06:14.515Z,9.88
2022-09-07T05:08:47.550Z,10.82
2022-09-07T05:11:15.242Z,10.02
2022-09-07T05:13:42.322Z,7.15
2022-09-07T05:16:20.472Z,7.43
2022-09-07T05:18:51.417Z,5.43
2022-09-07T05:21:23.505Z,5.47
2022-09-07T05:23:51.666Z,4.88
2022-09-07T05:26:20.109Z,5.60
2022-09-07T05:28:47.096Z,11.10
2022-09-07T05:31:20.481Z,9.10
2022-09-07T05:36:37.045Z,6.30
2022-09-07T05:39:05.045Z,5.85
2022-09-07T05:41:31.882Z,7.57
2022-09-07T05:46:45.138Z,6.85
2022-09-07T05:49:11.740Z,5.78
2022-09-07T05:51:38.848Z,4.38
2022-09-07T05:54:05.588Z,8.88
2022-09-07T05:56:35.946Z,9.48
2022-09-07T05:59:02.619Z,7.35
2022-09-07T06:01:29.179Z,7.47
2022-09-07T06:03:55.757Z,7.55
2022-09-07T06:06:22.333Z,7.32
2022-09-07T06:08:51.202Z,5.32
2022-09-07T06:11:20.522Z,5.72
2022-09-07T06:13:47.161Z,8.75
2022-09-07T06:16:15.713Z,4.03
2022-09-07T06:18:44.435Z,5.55
2022-09-07T06:21:13.725Z,6.45
2022-09-07T06:23:41.907Z,4.70
2022-09-07T06:26:09.396Z,8.18
2022-09-07T06:28:38.681Z,10.63
2022-09-07T06:31:10.780Z,12.13
2022-09-07T06:33:37.599Z,7.85
2022-09-07T06:36:06.925Z,8.80
2022-09-07T06:38:39.475Z,9.75
2022-09-07T06:43:57.812Z,7.45
2022-09-07T06:49:12.379Z,9.75
2022-09-07T06:51:38.963Z,8.77
2022-09-07T06:56:52.092Z,7.97
2022-09-07T06:59:18.691Z,9.77
2022-09-07T07:01:45.244Z,10.15
2022-09-07T07:04:11.868Z,11.95
2022-09-07T07:06:39.212Z,8.30
2022-09-07T07:09:08.387Z,7.03
2022-09-07T07:11:37.265Z,6.63
2022-09-07T07:14:04.175Z,5.65
2022-09-07T07:16:30.784Z,9.55
2022-09-07T07:18:58.045Z,10.15
2022-09-07T07:21:24.710Z,7.57
2022-09-07T07:23:53.087Z,8.48
2022-09-07T07:26:22.358Z,9.18
2022-09-07T07:29:06.589Z,7.28
2022-09-07T07:31:34.587Z,5.47
2022-09-07T07:34:03.700Z,5.28
2022-09-07T07:36:30.893Z,6.53
2022-09-07T07:44:17.533Z,3.35
2022-09-07T07:46:48.112Z,3.95
2022-09-07T07:49:14.680Z,8.30
2022-09-07T07:54:27.725Z,7.20
2022-09-07T07:56:54.177Z,7.68
2022-09-07T07:59:20.705Z,2.22
2022-09-07T08:01:47.324Z,3.63
2022-09-07T08:04:13.962Z,6.68
2022-09-07T08:06:42.594Z,4.15
2022-09-07T08:09:09.185Z,2.95
2022-09-07T08:11:35.688Z,4.13
2022-09-07T08:14:05.916Z,3.00
2022-09-07T08:16:33.107Z,4.05
2022-09-07T08:18:59.707Z,5.82
2022-09-07T08:21:26.312Z,4.38
2022-09-07T08:23:52.795Z,7.05
2022-09-07T08:26:19.281Z,7.35
2022-09-07T08:28:46.247Z,4.40
2022-09-07T08:31:15.412Z,6.00
2022-09-07T08:33:42.640Z,5.22
2022-09-07T08:36:12.985Z,4.20
2022-09-07T08:38:40.410Z,6.40
2022-09-07T08:41:40.607Z,3.25
2022-09-07T08:44:18.532Z,5.88
2022-09-07T08:46:55.734Z,4.30
2022-09-07T08:49:45.544Z,6.32
2022-09-07T08:52:21.153Z,5.70
2022-09-07T08:54:58.810Z,6.07
2022-09-07T08:57:30.859Z,3.08
2022-09-07T09:00:27.366Z,7.05
2022-09-07T09:05:52.727Z,5.43
2022-09-07T09:09:02.482Z,3.97
2022-09-07T09:11:50.640Z,4.57
2022-09-07T09:14:39.441Z,4.53
2022-09-07T09:17:44.524Z,4.97
2022-09-07T09:20:24.023Z,5.47
2022-09-07T09:23:18.950Z,5.32
2022-09-07T09:25:57.292Z,3.30
2022-09-07T09:28:26.452Z,4.13
2022-09-07T09:30:55.452Z,3.65
2022-09-07T09:33:25.910Z,3.17
2022-09-07T09:35:59.172Z,6.53
2022-09-07T09:38:39.485Z,4.78
2022-09-07T09:41:08.812Z,4.85
2022-09-07T09:43:40.830Z,6.15
2022-09-07T09:46:29.159Z,3.90
2022-09-07T09:49:04.943Z,6.10
2022-09-07T09:54:34.481Z,4.93
2022-09-07T09:57:00.987Z,6.63
2022-09-07T10:05:42.525Z,4.30
2022-09-07T10:08:28.934Z,5.60
2022-09-07T10:11:07.633Z,4.47
2022-09-07T10:13:44.072Z,4.22
2022-09-07T10:16:11.773Z,6.20
2022-09-07T10:18:40.627Z,3.80
2022-09-07T10:21:25.460Z,7.30
2022-09-07T10:23:57.207Z,4.63
2022-09-07T10:26:35.598Z,4.30
2022-09-07T10:29:08.492Z,7.93
2022-09-07T10:31:56.080Z,7.30
2022-09-07T10:34:41.419Z,7.22
2022-09-07T10:37:10.979Z,6.43
2022-09-07T10:40:26.053Z,5.57
2022-09-07T10:43:22.789Z,4.78
2022-09-07T10:46:07.690Z,5.53
2022-09-07T10:49:05.046Z,9.13
2022-09-07T10:51:38.860Z,5.43
2022-09-07T10:54:36.011Z,6.70
2022-09-07T10:57:32.580Z,6.28
2022-09-07T11:00:15.008Z,6.63
2022-09-07T11:06:10.880Z,6.10
2022-09-07T11:12:01.129Z,4.97
2022-09-07T11:14:31.485Z,7.15
2022-09-07T11:17:02.430Z,6.43
2022-09-07T11:19:35.442Z,7.32
2022-09-07T11:22:16.154Z,8.35
2022-09-07T11:25:35.837Z,4.95
2022-09-07T11:28:12.644Z,5.63
2022-09-07T11:30:50.565Z,5.05
2022-09-07T11:33:21.874Z,7.18
2022-09-07T11:36:09.833Z,4.00
2022-09-07T11:38:49.369Z,6.45
2022-09-07T11:41:27.922Z,6.18
2022-09-07T11:43:57.323Z,8.15
2022-09-07T11:46:23.776Z,5.82
2022-09-07T11:48:58.139Z,6.85
2022-09-07T11:51:41.747Z,4.28
2022-09-07T11:54:23.436Z,4.85
2022-09-07T11:56:58.079Z,4.30
2022-09-07T11:59:53.537Z,5.20
2022-09-07T12:02:58.854Z,4.45
2022-09-07T12:05:47.265Z,5.18
2022-09-07T12:08:24.720Z,7.80
2022-09-07T12:11:22.681Z,5.75
2022-09-07T12:14:07.755Z,5.65
2022-09-07T12:17:11.474Z,7.38
2022-09-07T12:19:38.029Z,4.00
2022-09-07T12:22:05.432Z,6.05
2022-09-07T12:24:42.651Z,6.55
2022-09-07T12:27:41.673Z,4.30
2022-09-07T12:30:30.102Z,3.58
2022-09-07T12:35:33.627Z,4.88
2022-09-07T12:38:01.845Z,3.03
2022-09-07T12:40:28.645Z,3.88
2022-09-07T12:43:13.656Z,6.22
2022-09-07T12:45:50.009Z,3.90
2022-09-07T12:48:16.455Z,5.45
2022-09-07T12:51:06.436Z,7.38
2022-09-07T12:53:57.791Z,3.30
2022-09-07T13:00:16.151Z,3.25
2022-09-07T13:03:07.182Z,5.97
2022-09-07T13:06:00.932Z,4.22
2022-09-07T13:08:42.569Z,5.07
2022-09-07T13:11:21.223Z,6.72
2022-09-07T13:14:29.699Z,3.00
2022-09-07T13:17:38.851Z,6.25
2022-09-07T13:20:18.870Z,6.72
2022-09-07T13:22:45.626Z,4.80
2022-09-07T13:25:22.428Z,6.15
2022-09-07T13:28:01.534Z,5.53
2022-09-07T13:30:44.752Z,4.45
2022-09-07T13:33:29.892Z,6.88
2022-09-07T13:36:05.369Z,5.03
2022-09-07T13:38:34.959Z,4.13
2022-09-07T13:41:12.416Z,5.55
2022-09-07T13:43:40.018Z,5.38
2022-09-07T13:46:47.858Z,5.07
2022-09-07T13:49:25.544Z,6.30
2022-09-07T13:52:00.118Z,4.55
2022-09-07T13:54:45.099Z,4.32
2022-09-07T13:57:40.618Z,4.80
2022-09-07T14:00:14.217Z,4.50
2022-09-07T14:02:41.411Z,5.35
2022-09-07T14:05:10.440Z,8.70
2022-09-07T14:07:37.230Z,7.95
2022-09-07T14:10:09.799Z,5.63
2022-09-07T14:12:44.906Z,4.13
2022-09-07T14:15:27.352Z,4.65
2022-09-07T14:18:03.544Z,4.53
2022-09-07T14:20:32.385Z,4.47
2022-09-07T14:22:59.400Z,3.28
2022-09-07T14:25:26.230Z,4.35
2022-09-07T14:27:52.821Z,5.20
2022-09-07T14:30:19.193Z,6.07
2022-09-07T14:33:02.107Z,5.70
2022-09-07T14:35:33.501Z,5.18
2022-09-07T14:38:15.863Z,5.32
2022-09-07T14:40:42.825Z,4.68
2022-09-07T14:43:27.978Z,4.80
2022-09-07T14:45:54.522Z,4.63
2022-09-07T14:48:29.255Z,5.10
2022-09-07T14:51:29.658Z,6.10
2022-09-07T14:53:53.795Z,3.92
2022-09-07T14:56:23.705Z,11.18
2022-09-07T14:58:52.707Z,4.38
2022-09-07T15:01:38.122Z,2.65
2022-09-07T15:04:18.392Z,3.75
2022-09-07T15:07:02.291Z,2.45
2022-09-07T15:09:35.922Z,4.80
2022-09-07T15:12:38.146Z,4.80
2022-09-07T15:15:40.198Z,5.40
2022-09-07T15:18:44.643Z,8.60
2022-09-07T15:21:11.322Z,3.15
2022-09-07T15:23:37.791Z,3.63
2022-09-07T15:26:05.009Z,2.95
2022-09-07T15:34:17.538Z,2.67
2022-09-07T15:36:49.362Z,9.38
2022-09-07T15:39:21.646Z,3.70
2022-09-07T15:41:48.355Z,3.65
2022-09-07T15:44:16.148Z,4.03
2022-09-07T15:47:43.182Z,4.75
2022-09-07T15:49:30.751Z,4.05
2022-09-07T15:52:05.418Z,9.18
2022-09-07T15:54:35.099Z,3.95
2022-09-07T15:59:49.743Z,15.43
2022-09-07T16:05:04.673Z,10.60
2022-09-07T16:10:18.581Z,9.65
2022-09-07T16:13:01.875Z,10.65
2022-09-07T16:15:29.178Z,3.97
2022-09-07T16:17:55.874Z,4.47
2022-09-07T16:20:22.357Z,7.15
2022-09-07T16:25:36.284Z,2.58
2022-09-07T16:28:05.703Z,4.55
2022-09-07T16:30:32.274Z,8.85
2022-09-07T16:32:58.880Z,5.40
2022-09-07T16:35:25.542Z,5.75
2022-09-07T16:40:41.876Z,5.00
2022-09-07T16:43:09.798Z,5.30
2022-09-07T16:48:23.031Z,16.23
2022-09-07T16:51:01.578Z,4.72
2022-09-07T16:53:33.511Z,3.38
2022-09-07T16:56:11.529Z,3.63
2022-09-07T16:58:40.822Z,10.23
2022-09-07T17:01:09.687Z,4.00
2022-09-07T17:03:37.694Z,7.00
2022-09-07T17:06:06.637Z,4.90
2022-09-07T17:08:34.594Z,6.03
2022-09-07T17:11:02.854Z,4.25
2022-09-07T17:13:31.362Z,19.25
2022-09-07T17:16:12.689Z,7.53
2022-09-07T17:21:35.536Z,7.63
2022-09-07T17:24:04.191Z,8.30
2022-09-07T17:26:31.242Z,4.30
2022-09-07T17:29:01.693Z,15.35
2022-09-07T17:34:18.084Z,11.48
2022-09-07T17:36:44.579Z,6.53
2022-09-07T17:39:16.326Z,4.32
2022-09-07T17:41:44.018Z,4.95
2022-09-07T17:44:10.884Z,3.40
2022-09-07T17:46:37.397Z,4.55
2022-09-07T17:51:32.860Z,4.03
2022-09-07T17:54:09.207Z,6.60
2022-09-07T17:56:36.451Z,6.53
2022-09-07T18:01:49.464Z,3.03
2022-09-07T18:04:16.081Z,5.85
2022-09-07T18:06:42.567Z,3.58
2022-09-07T18:09:09.024Z,7.40
2022-09-07T18:11:51.273Z,4.85
2022-09-07T18:16:47.740Z,1.98
2022-09-07T18:19:15.302Z,4.00
2022-09-07T18:21:43.616Z,2.25
2022-09-07T18:24:23.016Z,2.38
2022-09-07T18:26:53.065Z,4.22
2022-09-07T18:31:59.002Z,2.40
2022-09-07T18:34:26.279Z,3.70
2022-09-07T18:36:52.753Z,3.33
2022-09-07T18:39:19.253Z,3.05
2022-09-07T18:41:45.786Z,6.55
2022-09-07T18:46:58.634Z,7.45
2022-09-07T18:49:25.227Z,7.53
2022-09-07T18:54:39.413Z,5.80
2022-09-07T18:57:06.965Z,5.68
2022-09-07T18:59:33.809Z,3.75
2022-09-07T19:02:04.347Z,2.30
2022-09-07T19:07:20.584Z,2.85
2022-09-07T19:09:48.243Z,2.83
2022-09-07T19:12:15.179Z,2.00
2022-09-07T19:14:42.271Z,5.78
2022-09-07T19:17:10.898Z,3.08
2022-09-07T19:19:38.667Z,3.20
2022-09-07T19:22:06.056Z,3.30
2022-09-07T19:24:33.185Z,3.65
2022-09-07T19:27:00.856Z,4.57
2022-09-07T19:29:28.124Z,2.58
2022-09-07T19:32:13.006Z,5.15
2022-09-07T19:34:41.712Z,4.15
2022-09-07T19:37:10.304Z,8.15
2022-09-07T19:39:37.044Z,3.55
2022-09-07T19:42:04.654Z,4.72
2022-09-07T19:44:31.257Z,2.63
2022-09-07T19:46:57.754Z,4.72
2022-09-07T19:49:24.322Z,5.45
2022-09-07T19:51:51.907Z,7.22
2022-09-07T19:54:18.793Z,5.57
2022-09-07T19:56:45.575Z,5.32
2022-09-07T19:59:12.478Z,2.03
2022-09-07T20:01:40.559Z,3.38
2022-09-07T20:04:14.813Z,4.28
2022-09-07T20:06:44.018Z,5.05
2022-09-07T20:09:10.530Z,2.67
2022-09-07T20:11:37.013Z,3.45
2022-09-07T20:14:03.823Z,4.97
2022-09-07T20:16:31.231Z,3.45
2022-09-07T20:18:59.187Z,5.20
2022-09-07T20:21:26.896Z,5.82
2022-09-07T20:23:53.697Z,2.63
2022-09-07T20:26:21.726Z,6.70
2022-09-07T20:29:05.844Z,4.63
2022-09-07T20:31:38.367Z,5.32
2022-09-07T20:34:08.630Z,2.97
2022-09-07T20:39:04.525Z,4.28
2022-09-07T20:41:33.982Z,5.35
2022-09-07T20:44:02.397Z,5.80
2022-09-07T20:46:31.803Z,2.88
2022-09-07T20:48:58.962Z,4.10
2022-09-07T20:51:25.876Z,4.63
2022-09-07T20:53:52.462Z,6.15
2022-09-07T20:56:23.826Z,6.25
2022-09-07T20:58:57.953Z,10.30
2022-09-07T21:01:24.838Z,5.43
2022-09-07T21:03:54.005Z,4.50
2022-09-07T21:06:22.284Z,5.97
2022-09-07T21:08:50.506Z,5.15
2022-09-07T21:11:19.717Z,9.02
2022-09-07T21:13:46.744Z,7.18
2022-09-07T21:16:15.821Z,6.57
2022-09-07T21:18:46.534Z,6.10
2022-09-07T21:21:20.864Z,4.45
2022-09-07T21:23:47.943Z,4.03
2022-09-07T21:26:15.133Z,5.22
2022-09-07T21:28:41.722Z,5.10
2022-09-07T21:31:09.334Z,4.18
2022-09-07T21:33:37.291Z,4.53
2022-09-07T21:36:13.638Z,3.47
2022-09-07T21:41:08.596Z,3.40
2022-09-07T21:43:35.737Z,3.25
2022-09-07T21:46:09.577Z,3.25
2022-09-07T21:48:36.208Z,4.95
2022-09-07T21:51:03.208Z,5.90
2022-09-07T21:53:29.694Z,6.53
2022-09-07T21:56:01.864Z,3.83
2022-09-07T21:58:29.057Z,4.93
2022-09-07T22:00:57.019Z,4.00
2022-09-07T22:03:25.261Z,5.18
2022-09-07T22:05:51.738Z,6.20
2022-09-07T22:08:19.288Z,6.30
2022-09-07T22:10:46.478Z,5.72
2022-09-07T22:13:13.401Z,4.45
2022-09-07T22:15:41.454Z,3.60
2022-09-07T22:18:11.743Z,4.95
2022-09-07T22:23:07.889Z,4.15
2022-09-07T22:25:34.916Z,3.20
2022-09-07T22:28:01.521Z,3.05
2022-09-07T22:30:28.083Z,2.80
2022-09-07T22:32:54.546Z,4.25
2022-09-07T22:35:21.448Z,5.13
2022-09-07T22:37:47.960Z,6.15
2022-09-07T22:40:14.786Z,4.22
2022-09-07T22:42:41.812Z,5.07
2022-09-07T22:45:09.060Z,6.20
2022-09-07T22:47:35.538Z,5.57
2022-09-07T22:50:02.000Z,3.97
2022-09-07T22:52:28.483Z,2.97
2022-09-07T22:54:54.905Z,4.50
2022-09-07T22:57:21.312Z,6.28
2022-09-07T22:59:47.740Z,4.60
2022-09-07T23:02:14.184Z,6.25
2022-09-07T23:04:41.006Z,3.58
2022-09-07T23:07:07.722Z,4.93
2022-09-07T23:09:34.280Z,5.53
2022-09-07T23:12:00.717Z,12.82
2022-09-07T23:14:27.194Z,4.45
2022-09-07T23:16:53.654Z,3.53
2022-09-07T23:19:20.809Z,7.25
2022-09-07T23:21:48.075Z,3.08
2022-09-07T23:24:16.949Z,2.80
2022-09-07T23:26:43.968Z,4.78
2022-09-07T23:29:12.788Z,4.32
2022-09-07T23:31:40.299Z,5.53
2022-09-07T23:34:07.736Z,5.75
2022-09-07T23:36:34.487Z,7.47
2022-09-07T23:39:01.279Z,7.80
2022-09-07T23:41:28.471Z,5.00
2022-09-07T23:43:55.375Z,4.55
2022-09-07T23:46:22.745Z,5.13
2022-09-07T23:48:50.041Z,9.25
2022-09-07T23:51:21.273Z,4.78
2022-09-07T23:53:49.669Z,4.82
2022-09-07T23:56:16.228Z,4.00
2022-09-07T23:58:42.798Z,4.25
